sensor_id;sensor_type;location;lat;lon;timestamp;P1;durP1;ratioP1;P2;durP2;ratioP2
15889;SDS011;8043;49.388;12.128;2023-07-09T00:04:42;10.58;;;4.65;;
15889;SDS011;8043;49.388;12.128;2023-07-09T00:09:44;7.62;;;4.87;;
15889;SDS011;8043;49.388;12.128;2023-07-09T00:14:47;15.07;;;5.27;;
15889;SDS011;8043;49.388;12.128;2023-07-09T00:24:52;7.62;;;4.75;;
15889;SDS011;8043;49.388;12.128;2023-07-09T00:29:56;8.50;;;4.67;;
15889;SDS011;8043;49.388;12.128;2023-07-09T00:34:58;11.35;;;5.15;;
15889;SDS011;8043;49.388;12.128;2023-07-09T00:40:00;9.00;;;5.30;;
15889;SDS011;8043;49.388;12.128;2023-07-09T00:45:04;13.13;;;5.45;;
15889;SDS011;8043;49.388;12.128;2023-07-09T00:50:10;18.95;;;5.22;;
15889;SDS011;8043;49.388;12.128;2023-07-09T00:55:32;11.22;;;5.47;;
15889;SDS011;8043;49.388;12.128;2023-07-09T01:00:41;11.57;;;5.92;;
15889;SDS011;8043;49.388;12.128;2023-07-09T01:05:48;16.23;;;5.08;;
15889;SDS011;8043;49.388;12.128;2023-07-09T01:10:52;9.58;;;5.35;;
15889;SDS011;8043;49.388;12.128;2023-07-09T01:15:54;10.30;;;4.78;;
15889;SDS011;8043;49.388;12.128;2023-07-09T01:21:02;9.05;;;5.03;;
15889;SDS011;8043;49.388;12.128;2023-07-09T01:26:02;8.33;;;4.70;;
15889;SDS011;8043;49.388;12.128;2023-07-09T01:31:04;7.08;;;4.70;;
15889;SDS011;8043;49.388;12.128;2023-07-09T01:36:07;7.50;;;4.58;;
15889;SDS011;8043;49.388;12.128;2023-07-09T01:41:10;8.75;;;5.00;;
15889;SDS011;8043;49.388;12.128;2023-07-09T01:46:14;7.60;;;4.47;;
15889;SDS011;8043;49.388;12.128;2023-07-09T01:51:17;11.12;;;4.80;;
15889;SDS011;8043;49.388;12.128;2023-07-09T01:56:20;6.80;;;4.72;;
15889;SDS011;8043;49.388;12.128;2023-07-09T02:01:22;12.50;;;4.45;;
15889;SDS011;8043;49.388;12.128;2023-07-09T02:06:26;11.38;;;5.25;;
15889;SDS011;8043;49.388;12.128;2023-07-09T02:11:30;15.85;;;5.42;;
15889;SDS011;8043;49.388;12.128;2023-07-09T02:16:32;14.50;;;5.05;;
15889;SDS011;8043;49.388;12.128;2023-07-09T02:21:34;8.63;;;4.78;;
15889;SDS011;8043;49.388;12.128;2023-07-09T02:26:36;11.40;;;5.58;;
15889;SDS011;8043;49.388;12.128;2023-07-09T02:31:38;13.28;;;5.67;;
15889;SDS011;8043;49.388;12.128;2023-07-09T02:36:41;10.60;;;4.67;;
15889;SDS011;8043;49.388;12.128;2023-07-09T02:41:43;8.00;;;4.72;;
15889;SDS011;8043;49.388;12.128;2023-07-09T02:46:45;11.30;;;5.83;;
15889;SDS011;8043;49.388;12.128;2023-07-09T02:51:48;8.58;;;5.40;;
15889;SDS011;8043;49.388;12.128;2023-07-09T02:56:50;8.33;;;5.00;;
15889;SDS011;8043;49.388;12.128;2023-07-09T03:01:52;8.73;;;5.37;;
15889;SDS011;8043;49.388;12.128;2023-07-09T03:06:54;9.05;;;4.70;;
15889;SDS011;8043;49.388;12.128;2023-07-09T03:11:57;10.95;;;5.25;;
15889;SDS011;8043;49.388;12.128;2023-07-09T03:16:59;9.10;;;4.63;;
15889;SDS011;8043;49.388;12.128;2023-07-09T03:22:01;8.67;;;5.00;;
15889;SDS011;8043;49.388;12.128;2023-07-09T03:27:03;12.05;;;5.22;;
15889;SDS011;8043;49.388;12.128;2023-07-09T03:32:06;9.63;;;5.12;;
15889;SDS011;8043;49.388;12.128;2023-07-09T03:37:08;8.63;;;5.20;;
15889;SDS011;8043;49.388;12.128;2023-07-09T03:42:10;11.13;;;6.23;;
15889;SDS011;8043;49.388;12.128;2023-07-09T03:47:13;12.23;;;5.33;;
15889;SDS011;8043;49.388;12.128;2023-07-09T03:52:15;9.35;;;5.70;;
15889;SDS011;8043;49.388;12.128;2023-07-09T03:57:17;11.10;;;6.00;;
15889;SDS011;8043;49.388;12.128;2023-07-09T04:02:20;11.97;;;6.22;;
15889;SDS011;8043;49.388;12.128;2023-07-09T04:07:22;7.70;;;5.20;;
15889;SDS011;8043;49.388;12.128;2023-07-09T04:12:24;11.88;;;6.17;;
15889;SDS011;8043;49.388;12.128;2023-07-09T04:17:27;11.80;;;5.65;;
15889;SDS011;8043;49.388;12.128;2023-07-09T04:22:29;14.63;;;6.25;;
15889;SDS011;8043;49.388;12.128;2023-07-09T04:27:31;12.43;;;5.80;;
15889;SDS011;8043;49.388;12.128;2023-07-09T04:32:34;12.63;;;5.92;;
15889;SDS011;8043;49.388;12.128;2023-07-09T04:42:39;11.57;;;5.97;;
15889;SDS011;8043;49.388;12.128;2023-07-09T04:47:41;9.23;;;5.28;;
15889;SDS011;8043;49.388;12.128;2023-07-09T04:52:43;10.93;;;5.65;;
15889;SDS011;8043;49.388;12.128;2023-07-09T04:57:46;8.83;;;5.37;;
15889;SDS011;8043;49.388;12.128;2023-07-09T05:07:49;20.45;;;5.12;;
15889;SDS011;8043;49.388;12.128;2023-07-09T05:12:53;8.28;;;5.78;;
15889;SDS011;8043;49.388;12.128;2023-07-09T05:17:55;9.38;;;5.55;;
15889;SDS011;8043;49.388;12.128;2023-07-09T05:22:58;11.48;;;6.22;;
15889;SDS011;8043;49.388;12.128;2023-07-09T05:28:00;22.42;;;5.92;;
15889;SDS011;8043;49.388;12.128;2023-07-09T05:33:02;15.40;;;5.80;;
15889;SDS011;8043;49.388;12.128;2023-07-09T05:38:04;16.32;;;6.80;;
15889;SDS011;8043;49.388;12.128;2023-07-09T05:43:06;8.78;;;5.08;;
15889;SDS011;8043;49.388;12.128;2023-07-09T05:48:09;11.10;;;5.85;;
15889;SDS011;8043;49.388;12.128;2023-07-09T05:53:11;12.28;;;6.60;;
15889;SDS011;8043;49.388;12.128;2023-07-09T05:58:13;10.58;;;5.35;;
15889;SDS011;8043;49.388;12.128;2023-07-09T06:03:15;13.93;;;6.58;;
15889;SDS011;8043;49.388;12.128;2023-07-09T06:08:18;11.97;;;6.53;;
15889;SDS011;8043;49.388;12.128;2023-07-09T06:13:21;10.15;;;5.97;;
15889;SDS011;8043;49.388;12.128;2023-07-09T06:18:24;11.70;;;5.60;;
15889;SDS011;8043;49.388;12.128;2023-07-09T06:23:28;9.48;;;6.20;;
15889;SDS011;8043;49.388;12.128;2023-07-09T06:33:32;10.95;;;5.72;;
15889;SDS011;8043;49.388;12.128;2023-07-09T06:38:35;7.53;;;5.12;;
15889;SDS011;8043;49.388;12.128;2023-07-09T06:43:37;16.75;;;6.20;;
15889;SDS011;8043;49.388;12.128;2023-07-09T06:48:40;11.68;;;6.30;;
15889;SDS011;8043;49.388;12.128;2023-07-09T06:53:42;10.33;;;5.47;;
15889;SDS011;8043;49.388;12.128;2023-07-09T06:58:46;10.08;;;5.62;;
15889;SDS011;8043;49.388;12.128;2023-07-09T07:03:48;9.00;;;5.03;;
15889;SDS011;8043;49.388;12.128;2023-07-09T07:08:50;11.18;;;5.40;;
15889;SDS011;8043;49.388;12.128;2023-07-09T07:18:54;7.50;;;4.60;;
15889;SDS011;8043;49.388;12.128;2023-07-09T07:23:57;12.50;;;4.90;;
15889;SDS011;8043;49.388;12.128;2023-07-09T07:28:59;8.70;;;5.28;;
15889;SDS011;8043;49.388;12.128;2023-07-09T07:34:01;11.30;;;6.05;;
15889;SDS011;8043;49.388;12.128;2023-07-09T07:39:03;12.98;;;6.42;;
15889;SDS011;8043;49.388;12.128;2023-07-09T07:44:06;13.10;;;6.50;;
15889;SDS011;8043;49.388;12.128;2023-07-09T07:49:08;10.20;;;5.53;;
15889;SDS011;8043;49.388;12.128;2023-07-09T07:54:10;10.20;;;5.92;;
15889;SDS011;8043;49.388;12.128;2023-07-09T07:59:12;8.68;;;5.35;;
15889;SDS011;8043;49.388;12.128;2023-07-09T08:04:15;8.90;;;5.62;;
15889;SDS011;8043;49.388;12.128;2023-07-09T08:09:18;9.13;;;5.67;;
15889;SDS011;8043;49.388;12.128;2023-07-09T08:14:20;9.93;;;5.92;;
15889;SDS011;8043;49.388;12.128;2023-07-09T08:19:23;11.73;;;4.95;;
15889;SDS011;8043;49.388;12.128;2023-07-09T08:29:26;11.57;;;4.47;;
15889;SDS011;8043;49.388;12.128;2023-07-09T08:34:28;9.60;;;5.33;;
15889;SDS011;8043;49.388;12.128;2023-07-09T08:39:31;7.85;;;4.72;;
15889;SDS011;8043;49.388;12.128;2023-07-09T08:49:59;10.37;;;4.70;;
15889;SDS011;8043;49.388;12.128;2023-07-09T09:00:15;9.00;;;4.60;;
15889;SDS011;8043;49.388;12.128;2023-07-09T09:05:20;8.68;;;4.92;;
15889;SDS011;8043;49.388;12.128;2023-07-09T09:10:29;9.45;;;4.15;;
15889;SDS011;8043;49.388;12.128;2023-07-09T09:15:34;6.67;;;4.40;;
15889;SDS011;8043;49.388;12.128;2023-07-09T09:20:36;9.45;;;4.70;;
15889;SDS011;8043;49.388;12.128;2023-07-09T09:25:40;10.55;;;4.67;;
15889;SDS011;8043;49.388;12.128;2023-07-09T09:30:42;11.15;;;4.62;;
15889;SDS011;8043;49.388;12.128;2023-07-09T09:35:45;7.55;;;4.50;;
15889;SDS011;8043;49.388;12.128;2023-07-09T09:40:51;7.17;;;3.83;;
15889;SDS011;8043;49.388;12.128;2023-07-09T09:45:56;7.40;;;3.37;;
15889;SDS011;8043;49.388;12.128;2023-07-09T09:51:04;7.03;;;3.55;;
15889;SDS011;8043;49.388;12.128;2023-07-09T09:56:10;14.53;;;3.77;;
15889;SDS011;8043;49.388;12.128;2023-07-09T10:01:15;11.05;;;3.77;;
15889;SDS011;8043;49.388;12.128;2023-07-09T10:06:20;7.05;;;3.55;;
15889;SDS011;8043;49.388;12.128;2023-07-09T10:11:44;7.75;;;3.22;;
15889;SDS011;8043;49.388;12.128;2023-07-09T10:16:51;12.58;;;4.20;;
15889;SDS011;8043;49.388;12.128;2023-07-09T10:22:06;8.63;;;3.47;;
15889;SDS011;8043;49.388;12.128;2023-07-09T10:27:27;12.10;;;3.85;;
15889;SDS011;8043;49.388;12.128;2023-07-09T10:32:44;5.20;;;3.20;;
15889;SDS011;8043;49.388;12.128;2023-07-09T10:43:15;9.08;;;3.08;;
15889;SDS011;8043;49.388;12.128;2023-07-09T10:49:08;9.65;;;3.15;;
15889;SDS011;8043;49.388;12.128;2023-07-09T10:53:38;6.22;;;3.00;;
15889;SDS011;8043;49.388;12.128;2023-07-09T10:58:56;6.12;;;2.98;;
15889;SDS011;8043;49.388;12.128;2023-07-09T11:04:10;10.18;;;3.27;;
15889;SDS011;8043;49.388;12.128;2023-07-09T11:09:32;15.83;;;3.47;;
15889;SDS011;8043;49.388;12.128;2023-07-09T11:14:39;5.78;;;2.60;;
15889;SDS011;8043;49.388;12.128;2023-07-09T11:19:47;5.53;;;2.80;;
15889;SDS011;8043;49.388;12.128;2023-07-09T11:24:52;12.05;;;4.47;;
15889;SDS011;8043;49.388;12.128;2023-07-09T11:30:00;4.53;;;2.85;;
15889;SDS011;8043;49.388;12.128;2023-07-09T11:35:24;4.42;;;2.77;;
15889;SDS011;8043;49.388;12.128;2023-07-09T11:40:27;5.83;;;2.77;;
15889;SDS011;8043;49.388;12.128;2023-07-09T11:45:33;6.37;;;3.20;;
15889;SDS011;8043;49.388;12.128;2023-07-09T11:50:38;19.37;;;3.80;;
15889;SDS011;8043;49.388;12.128;2023-07-09T11:55:44;11.03;;;3.17;;
15889;SDS011;8043;49.388;12.128;2023-07-09T12:00:48;11.97;;;3.62;;
15889;SDS011;8043;49.388;12.128;2023-07-09T12:05:53;8.18;;;3.25;;
15889;SDS011;8043;49.388;12.128;2023-07-09T12:10:56;7.17;;;3.00;;
15889;SDS011;8043;49.388;12.128;2023-07-09T12:15:59;8.70;;;2.60;;
15889;SDS011;8043;49.388;12.128;2023-07-09T12:21:01;7.28;;;3.12;;
15889;SDS011;8043;49.388;12.128;2023-07-09T12:26:03;4.35;;;3.00;;
15889;SDS011;8043;49.388;12.128;2023-07-09T12:31:13;5.90;;;3.33;;
15889;SDS011;8043;49.388;12.128;2023-07-09T12:36:17;8.70;;;3.08;;
15889;SDS011;8043;49.388;12.128;2023-07-09T12:41:29;7.40;;;3.22;;
15889;SDS011;8043;49.388;12.128;2023-07-09T12:46:28;5.80;;;3.03;;
15889;SDS011;8043;49.388;12.128;2023-07-09T12:51:30;7.33;;;3.30;;
15889;SDS011;8043;49.388;12.128;2023-07-09T12:56:33;6.70;;;3.00;;
15889;SDS011;8043;49.388;12.128;2023-07-09T13:01:36;8.93;;;3.00;;
15889;SDS011;8043;49.388;12.128;2023-07-09T13:06:38;5.78;;;3.22;;
15889;SDS011;8043;49.388;12.128;2023-07-09T13:11:42;4.58;;;3.00;;
15889;SDS011;8043;49.388;12.128;2023-07-09T13:16:46;5.95;;;3.20;;
15889;SDS011;8043;49.388;12.128;2023-07-09T13:21:48;4.37;;;3.00;;
15889;SDS011;8043;49.388;12.128;2023-07-09T13:26:51;8.00;;;2.98;;
15889;SDS011;8043;49.388;12.128;2023-07-09T13:31:53;4.92;;;2.87;;
15889;SDS011;8043;49.388;12.128;2023-07-09T13:36:55;5.33;;;3.22;;
15889;SDS011;8043;49.388;12.128;2023-07-09T13:41:58;9.28;;;3.72;;
15889;SDS011;8043;49.388;12.128;2023-07-09T13:47:00;8.43;;;3.22;;
15889;SDS011;8043;49.388;12.128;2023-07-09T13:52:02;13.62;;;3.33;;
15889;SDS011;8043;49.388;12.128;2023-07-09T13:57:07;7.30;;;2.95;;
15889;SDS011;8043;49.388;12.128;2023-07-09T14:02:33;8.80;;;3.72;;
15889;SDS011;8043;49.388;12.128;2023-07-09T14:07:25;5.70;;;3.55;;
15889;SDS011;8043;49.388;12.128;2023-07-09T14:12:25;6.23;;;3.27;;
15889;SDS011;8043;49.388;12.128;2023-07-09T14:17:28;7.85;;;3.37;;
15889;SDS011;8043;49.388;12.128;2023-07-09T14:22:32;5.50;;;2.80;;
15889;SDS011;8043;49.388;12.128;2023-07-09T14:27:35;5.87;;;2.87;;
15889;SDS011;8043;49.388;12.128;2023-07-09T14:32:37;5.10;;;2.80;;
15889;SDS011;8043;49.388;12.128;2023-07-09T14:37:42;4.87;;;2.85;;
15889;SDS011;8043;49.388;12.128;2023-07-09T14:42:48;6.05;;;2.85;;
15889;SDS011;8043;49.388;12.128;2023-07-09T14:47:52;5.87;;;3.10;;
15889;SDS011;8043;49.388;12.128;2023-07-09T14:52:54;11.63;;;3.25;;
15889;SDS011;8043;49.388;12.128;2023-07-09T14:57:56;5.40;;;3.20;;
15889;SDS011;8043;49.388;12.128;2023-07-09T15:03:00;4.45;;;2.75;;
15889;SDS011;8043;49.388;12.128;2023-07-09T15:08:12;5.10;;;2.80;;
15889;SDS011;8043;49.388;12.128;2023-07-09T15:13:25;9.23;;;2.80;;
15889;SDS011;8043;49.388;12.128;2023-07-09T15:18:23;8.83;;;3.37;;
15889;SDS011;8043;49.388;12.128;2023-07-09T15:23:26;4.92;;;2.77;;
15889;SDS011;8043;49.388;12.128;2023-07-09T15:28:28;15.08;;;3.25;;
15889;SDS011;8043;49.388;12.128;2023-07-09T15:33:30;11.40;;;3.40;;
15889;SDS011;8043;49.388;12.128;2023-07-09T15:38:33;4.85;;;3.02;;
15889;SDS011;8043;49.388;12.128;2023-07-09T15:43:35;5.15;;;3.05;;
15889;SDS011;8043;49.388;12.128;2023-07-09T15:48:38;9.70;;;3.22;;
15889;SDS011;8043;49.388;12.128;2023-07-09T15:53:40;9.68;;;2.98;;
15889;SDS011;8043;49.388;12.128;2023-07-09T15:58:43;6.10;;;3.72;;
15889;SDS011;8043;49.388;12.128;2023-07-09T16:03:51;7.80;;;3.20;;
15889;SDS011;8043;49.388;12.128;2023-07-09T16:08:54;11.28;;;3.90;;
15889;SDS011;8043;49.388;12.128;2023-07-09T16:13:57;5.22;;;2.58;;
15889;SDS011;8043;49.388;12.128;2023-07-09T16:18:59;7.47;;;3.27;;
15889;SDS011;8043;49.388;12.128;2023-07-09T16:24:02;7.62;;;3.05;;
15889;SDS011;8043;49.388;12.128;2023-07-09T16:29:09;7.78;;;3.52;;
15889;SDS011;8043;49.388;12.128;2023-07-09T16:34:13;7.03;;;3.27;;
15889;SDS011;8043;49.388;12.128;2023-07-09T16:39:35;10.25;;;3.47;;
15889;SDS011;8043;49.388;12.128;2023-07-09T16:44:39;7.62;;;3.33;;
15889;SDS011;8043;49.388;12.128;2023-07-09T16:49:42;7.42;;;3.40;;
15889;SDS011;8043;49.388;12.128;2023-07-09T16:54:44;4.87;;;2.87;;
15889;SDS011;8043;49.388;12.128;2023-07-09T16:59:52;4.80;;;3.10;;
15889;SDS011;8043;49.388;12.128;2023-07-09T17:04:51;6.08;;;3.02;;
15889;SDS011;8043;49.388;12.128;2023-07-09T17:09:54;6.58;;;3.45;;
15889;SDS011;8043;49.388;12.128;2023-07-09T17:14:58;5.25;;;3.15;;
15889;SDS011;8043;49.388;12.128;2023-07-09T17:20:01;5.27;;;2.93;;
15889;SDS011;8043;49.388;12.128;2023-07-09T17:25:21;6.53;;;3.55;;
15889;SDS011;8043;49.388;12.128;2023-07-09T17:30:29;5.85;;;3.02;;
15889;SDS011;8043;49.388;12.128;2023-07-09T17:35:32;6.30;;;3.12;;
15889;SDS011;8043;49.388;12.128;2023-07-09T17:40:34;8.98;;;3.10;;
15889;SDS011;8043;49.388;12.128;2023-07-09T17:45:37;10.50;;;3.40;;
15889;SDS011;8043;49.388;12.128;2023-07-09T17:50:39;7.75;;;3.77;;
15889;SDS011;8043;49.388;12.128;2023-07-09T17:55:42;4.15;;;3.17;;
15889;SDS011;8043;49.388;12.128;2023-07-09T18:00:44;8.80;;;3.42;;
15889;SDS011;8043;49.388;12.128;2023-07-09T18:05:46;7.03;;;3.20;;
15889;SDS011;8043;49.388;12.128;2023-07-09T18:10:50;5.83;;;3.00;;
15889;SDS011;8043;49.388;12.128;2023-07-09T18:15:53;5.62;;;3.20;;
15889;SDS011;8043;49.388;12.128;2023-07-09T18:20:56;13.22;;;4.05;;
15889;SDS011;8043;49.388;12.128;2023-07-09T18:25:59;8.93;;;4.00;;
15889;SDS011;8043;49.388;12.128;2023-07-09T18:31:01;6.72;;;3.22;;
15889;SDS011;8043;49.388;12.128;2023-07-09T18:36:03;6.65;;;2.70;;
15889;SDS011;8043;49.388;12.128;2023-07-09T18:41:14;7.97;;;3.55;;
15889;SDS011;8043;49.388;12.128;2023-07-09T18:46:16;6.62;;;4.15;;
15889;SDS011;8043;49.388;12.128;2023-07-09T18:51:18;7.28;;;3.10;;
15889;SDS011;8043;49.388;12.128;2023-07-09T18:56:21;13.83;;;3.72;;
15889;SDS011;8043;49.388;12.128;2023-07-09T19:01:23;5.90;;;3.45;;
15889;SDS011;8043;49.388;12.128;2023-07-09T19:06:26;9.10;;;3.75;;
15889;SDS011;8043;49.388;12.128;2023-07-09T19:11:28;17.80;;;3.83;;
15889;SDS011;8043;49.388;12.128;2023-07-09T19:16:31;13.13;;;3.85;;
15889;SDS011;8043;49.388;12.128;2023-07-09T19:21:33;8.33;;;3.10;;
15889;SDS011;8043;49.388;12.128;2023-07-09T19:26:35;12.60;;;4.22;;
15889;SDS011;8043;49.388;12.128;2023-07-09T19:31:38;11.78;;;3.72;;
15889;SDS011;8043;49.388;12.128;2023-07-09T19:36:41;8.45;;;3.98;;
15889;SDS011;8043;49.388;12.128;2023-07-09T19:41:44;10.57;;;3.53;;
15889;SDS011;8043;49.388;12.128;2023-07-09T19:46:46;18.32;;;4.35;;
15889;SDS011;8043;49.388;12.128;2023-07-09T19:51:48;9.85;;;3.72;;
15889;SDS011;8043;49.388;12.128;2023-07-09T19:56:51;6.87;;;4.37;;
15889;SDS011;8043;49.388;12.128;2023-07-09T20:01:53;8.85;;;4.25;;
15889;SDS011;8043;49.388;12.128;2023-07-09T20:06:55;11.55;;;4.53;;
15889;SDS011;8043;49.388;12.128;2023-07-09T20:11:58;13.93;;;4.67;;
15889;SDS011;8043;49.388;12.128;2023-07-09T20:17:01;15.30;;;4.65;;
15889;SDS011;8043;49.388;12.128;2023-07-09T20:22:03;13.73;;;4.83;;
15889;SDS011;8043;49.388;12.128;2023-07-09T20:27:15;12.90;;;4.30;;
15889;SDS011;8043;49.388;12.128;2023-07-09T20:32:19;10.72;;;4.67;;
15889;SDS011;8043;49.388;12.128;2023-07-09T20:37:21;10.75;;;4.95;;
15889;SDS011;8043;49.388;12.128;2023-07-09T20:42:23;11.35;;;5.05;;
15889;SDS011;8043;49.388;12.128;2023-07-09T20:47:26;14.65;;;5.05;;
15889;SDS011;8043;49.388;12.128;2023-07-09T20:57:31;16.40;;;5.40;;
15889;SDS011;8043;49.388;12.128;2023-07-09T21:02:36;9.30;;;4.83;;
15889;SDS011;8043;49.388;12.128;2023-07-09T21:07:44;8.80;;;4.62;;
15889;SDS011;8043;49.388;12.128;2023-07-09T21:12:44;11.43;;;4.33;;
15889;SDS011;8043;49.388;12.128;2023-07-09T21:17:47;9.38;;;4.83;;
15889;SDS011;8043;49.388;12.128;2023-07-09T21:22:49;17.57;;;5.25;;
15889;SDS011;8043;49.388;12.128;2023-07-09T21:27:52;10.03;;;4.90;;
15889;SDS011;8043;49.388;12.128;2023-07-09T21:32:55;12.15;;;5.05;;
15889;SDS011;8043;49.388;12.128;2023-07-09T21:37:57;11.80;;;5.15;;
15889;SDS011;8043;49.388;12.128;2023-07-09T21:43:01;7.90;;;4.47;;
15889;SDS011;8043;49.388;12.128;2023-07-09T21:48:05;13.28;;;5.47;;
15889;SDS011;8043;49.388;12.128;2023-07-09T21:53:26;10.75;;;5.40;;
15889;SDS011;8043;49.388;12.128;2023-07-09T21:58:30;11.48;;;5.00;;
15889;SDS011;8043;49.388;12.128;2023-07-09T22:03:32;9.40;;;4.92;;
15889;SDS011;8043;49.388;12.128;2023-07-09T22:08:35;8.67;;;4.13;;
15889;SDS011;8043;49.388;12.128;2023-07-09T22:13:37;18.52;;;5.50;;
15889;SDS011;8043;49.388;12.128;2023-07-09T22:23:41;8.37;;;4.80;;
15889;SDS011;8043;49.388;12.128;2023-07-09T22:28:44;14.95;;;5.95;;
15889;SDS011;8043;49.388;12.128;2023-07-09T22:33:46;11.20;;;4.93;;
15889;SDS011;8043;49.388;12.128;2023-07-09T22:38:48;8.80;;;4.83;;
15889;SDS011;8043;49.388;12.128;2023-07-09T22:43:50;11.35;;;5.30;;
15889;SDS011;8043;49.388;12.128;2023-07-09T22:53:54;7.92;;;4.67;;
15889;SDS011;8043;49.388;12.128;2023-07-09T22:58:56;13.03;;;5.12;;
15889;SDS011;8043;49.388;12.128;2023-07-09T23:03:59;9.80;;;5.58;;
15889;SDS011;8043;49.388;12.128;2023-07-09T23:09:02;11.90;;;5.37;;
15889;SDS011;8043;49.388;12.128;2023-07-09T23:14:10;10.20;;;4.97;;
15889;SDS011;8043;49.388;12.128;2023-07-09T23:19:25;15.38;;;5.37;;
15889;SDS011;8043;49.388;12.128;2023-07-09T23:24:28;10.20;;;5.37;;
15889;SDS011;8043;49.388;12.128;2023-07-09T23:29:30;12.33;;;5.67;;
15889;SDS011;8043;49.388;12.128;2023-07-09T23:34:33;9.68;;;5.35;;
15889;SDS011;8043;49.388;12.128;2023-07-09T23:39:35;11.40;;;5.37;;
15889;SDS011;8043;49.388;12.128;2023-07-09T23:44:37;11.20;;;5.22;;
15889;SDS011;8043;49.388;12.128;2023-07-09T23:49:41;10.57;;;5.23;;
15889;SDS011;8043;49.388;12.128;2023-07-09T23:54:43;11.80;;;4.87;;
15889;SDS011;8043;49.388;12.128;2023-07-09T23:59:47;11.43;;;5.17;;
